createdAt,value
2023-02-16T00:02:07.179Z,11.16
2023-02-16T00:04:56.637Z,11.17
2023-02-16T00:07:47.419Z,11.16
2023-02-16T00:10:39.429Z,11.13
2023-02-16T00:13:47.105Z,11.18
2023-02-16T00:16:36.994Z,11.08
2023-02-16T00:19:29.459Z,11.12
2023-02-16T00:22:18.654Z,11.15
2023-02-16T00:25:09.668Z,11.22
2023-02-16T00:27:59.516Z,11.23
2023-02-16T00:30:50.290Z,11.39
2023-02-16T00:33:39.618Z,11.49
2023-02-16T00:36:28.838Z,11.55
2023-02-16T00:39:18.168Z,11.66
2023-02-16T00:42:18.286Z,11.71
2023-02-16T00:45:14.249Z,11.72
2023-02-16T00:48:03.690Z,11.78
2023-02-16T00:50:53.440Z,11.83
2023-02-16T00:53:42.683Z,11.88
2023-02-16T00:56:33.257Z,11.88
2023-02-16T00:59:24.702Z,11.87
2023-02-16T01:02:14.055Z,11.92
2023-02-16T01:05:03.424Z,11.94
2023-02-16T01:08:11.101Z,11.82
2023-02-16T01:11:11.261Z,11.89
2023-02-16T01:14:02.919Z,11.96
2023-02-16T01:16:56.177Z,11.96
2023-02-16T01:19:45.429Z,11.90
2023-02-16T01:22:34.988Z,12.01
2023-02-16T01:25:24.481Z,11.97
2023-02-16T01:28:22.361Z,12.00
2023-02-16T01:31:12.472Z,12.15
2023-02-16T01:34:03.295Z,12.04
2023-02-16T01:36:52.782Z,12.12
2023-02-16T01:39:41.976Z,12.07
2023-02-16T01:42:38.465Z,12.11
2023-02-16T01:45:35.088Z,12.12
2023-02-16T01:48:28.968Z,12.10
2023-02-16T01:51:26.021Z,12.06
2023-02-16T01:54:32.410Z,12.07
2023-02-16T01:57:35.244Z,12.08
2023-02-16T02:00:30.758Z,12.03
2023-02-16T02:03:42.623Z,12.00
2023-02-16T02:06:36.074Z,11.98
2023-02-16T02:09:35.088Z,12.03
2023-02-16T02:12:34.153Z,12.03
2023-02-16T02:15:29.842Z,12.03
2023-02-16T02:18:19.328Z,12.12
2023-02-16T02:21:56.729Z,12.13
2023-02-16T02:25:22.612Z,12.11
2023-02-16T02:28:20.650Z,12.08
2023-02-16T02:31:16.835Z,12.05
2023-02-16T02:34:18.385Z,12.11
2023-02-16T02:37:14.376Z,12.13
2023-02-16T02:40:16.823Z,12.17
2023-02-16T02:43:18.117Z,12.12
2023-02-16T02:46:14.202Z,12.14
2023-02-16T02:49:03.895Z,12.18
2023-02-16T02:51:53.348Z,12.08
2023-02-16T02:55:00.871Z,12.24
2023-02-16T02:58:09.334Z,12.24
2023-02-16T03:01:01.693Z,12.25
2023-02-16T03:03:58.247Z,12.24
2023-02-16T03:06:53.121Z,12.19
2023-02-16T03:09:42.579Z,12.23
2023-02-16T03:12:46.362Z,12.19
2023-02-16T03:15:37.549Z,12.20
2023-02-16T03:18:47.080Z,12.24
2023-02-16T03:21:54.805Z,12.23
2023-02-16T03:25:01.980Z,12.22
2023-02-16T03:28:09.253Z,12.26
2023-02-16T03:30:59.239Z,12.23
2023-02-16T03:33:54.762Z,12.30
2023-02-16T03:36:47.294Z,12.24
2023-02-16T03:39:57.017Z,12.35
2023-02-16T03:42:51.696Z,12.32
2023-02-16T03:45:43.741Z,12.47
2023-02-16T03:48:32.985Z,12.43
2023-02-16T03:51:23.643Z,12.43
2023-02-16T03:54:13.012Z,12.50
2023-02-16T03:57:02.408Z,12.48
2023-02-16T03:59:52.152Z,12.51
2023-02-16T04:02:41.365Z,12.51
2023-02-16T04:05:30.770Z,12.54
2023-02-16T04:08:21.336Z,12.46
2023-02-16T04:11:24.329Z,12.49
2023-02-16T04:14:13.553Z,12.45
2023-02-16T04:17:03.978Z,12.39
2023-02-16T04:19:53.414Z,12.42
2023-02-16T04:22:43.512Z,12.43
2023-02-16T04:25:34.125Z,12.37
2023-02-16T04:28:23.968Z,12.39
2023-02-16T04:31:13.271Z,12.53
2023-02-16T04:34:02.649Z,12.56
2023-02-16T04:36:51.996Z,12.52
2023-02-16T04:39:41.264Z,12.65
2023-02-16T04:42:31.836Z,12.63
2023-02-16T04:45:21.270Z,12.73
2023-02-16T04:48:10.470Z,12.73
2023-02-16T04:50:59.671Z,12.76
2023-02-16T04:53:49.138Z,12.63
2023-02-16T04:56:38.735Z,12.68
2023-02-16T04:59:29.389Z,12.78
2023-02-16T05:02:18.829Z,12.83
2023-02-16T05:05:09.784Z,12.82
2023-02-16T05:07:58.984Z,12.85
2023-02-16T05:11:08.952Z,12.80
2023-02-16T05:14:15.945Z,12.77
2023-02-16T05:17:06.616Z,12.70
2023-02-16T05:19:58.350Z,12.71
2023-02-16T05:22:47.579Z,12.81
2023-02-16T05:25:36.797Z,12.79
2023-02-16T05:28:26.090Z,12.75
2023-02-16T05:31:15.386Z,12.77
2023-02-16T05:34:06.123Z,12.69
2023-02-16T05:36:55.746Z,12.82
2023-02-16T05:39:45.405Z,12.81
2023-02-16T05:42:34.635Z,12.84
2023-02-16T05:45:23.898Z,12.84
2023-02-16T05:48:13.162Z,12.74
2023-02-16T05:51:04.051Z,12.78
2023-02-16T05:53:53.482Z,12.75
2023-02-16T05:56:42.764Z,12.80
2023-02-16T05:59:32.249Z,12.81
2023-02-16T06:02:21.580Z,12.88
2023-02-16T06:05:10.968Z,12.82
2023-02-16T06:08:01.563Z,12.81
2023-02-16T06:10:52.360Z,12.80
2023-02-16T06:13:41.658Z,12.75
2023-02-16T06:16:32.799Z,12.76
2023-02-16T06:19:22.238Z,12.68
2023-02-16T06:22:11.856Z,12.74
2023-02-16T06:25:02.514Z,12.67
2023-02-16T06:27:52.863Z,12.63
2023-02-16T06:30:42.791Z,12.62
2023-02-16T06:33:32.055Z,12.56
2023-02-16T06:36:21.782Z,12.69
2023-02-16T06:39:11.042Z,12.62
2023-02-16T06:42:01.582Z,12.61
2023-02-16T06:44:50.812Z,12.60
2023-02-16T06:47:40.463Z,12.66
2023-02-16T06:50:29.832Z,12.63
2023-02-16T06:53:19.351Z,12.63
2023-02-16T06:56:09.057Z,12.60
2023-02-16T06:58:59.748Z,12.50
2023-02-16T07:01:49.309Z,12.59
2023-02-16T07:04:38.652Z,12.51
2023-02-16T07:07:27.927Z,12.53
2023-02-16T07:10:17.163Z,12.58
2023-02-16T07:13:06.580Z,12.52
2023-02-16T07:15:57.240Z,12.48
2023-02-16T07:18:47.564Z,12.38
2023-02-16T07:21:37.168Z,12.32
2023-02-16T07:24:26.583Z,12.28
2023-02-16T07:27:15.925Z,12.30
2023-02-16T07:30:06.160Z,12.36
2023-02-16T07:32:56.770Z,12.39
2023-02-16T07:35:46.011Z,12.43
2023-02-16T07:38:35.858Z,12.42
2023-02-16T07:41:25.638Z,12.39
2023-02-16T07:44:16.196Z,12.23
2023-02-16T07:47:05.756Z,12.26
2023-02-16T07:49:56.447Z,12.23
2023-02-16T07:52:45.854Z,12.13
2023-02-16T07:55:39.710Z,12.09
2023-02-16T07:58:29.320Z,12.07
2023-02-16T08:01:18.772Z,12.15
2023-02-16T08:04:08.164Z,12.13
2023-02-16T08:06:59.166Z,12.26
2023-02-16T08:09:48.722Z,12.24
2023-02-16T08:12:38.789Z,12.25
2023-02-16T08:15:28.352Z,12.29
2023-02-16T08:18:17.721Z,12.31
2023-02-16T08:21:14.436Z,12.41
2023-02-16T08:24:08.457Z,12.43
2023-02-16T08:26:57.889Z,12.36
2023-02-16T08:29:47.151Z,12.47
2023-02-16T08:32:36.376Z,12.50
2023-02-16T08:35:25.614Z,12.42
2023-02-16T08:38:17.433Z,12.48
2023-02-16T08:41:08.246Z,12.52
2023-02-16T08:43:57.739Z,12.53
2023-02-16T08:46:49.684Z,12.56
2023-02-16T08:49:39.622Z,12.50
2023-02-16T08:52:29.099Z,12.46
2023-02-16T08:55:18.586Z,12.43
2023-02-16T08:58:09.264Z,12.36
2023-02-16T09:00:59.069Z,12.30
2023-02-16T09:03:48.761Z,12.29
2023-02-16T09:06:40.098Z,12.29
2023-02-16T09:09:29.881Z,12.23
2023-02-16T09:12:19.131Z,12.14
2023-02-16T09:15:14.394Z,12.08
2023-02-16T09:18:03.672Z,12.15
2023-02-16T09:20:53.737Z,12.10
2023-02-16T09:23:45.035Z,12.06
2023-02-16T09:26:37.077Z,12.12
2023-02-16T09:29:26.542Z,12.22
2023-02-16T09:32:17.340Z,12.23
2023-02-16T09:35:07.720Z,12.16
2023-02-16T09:37:57.904Z,12.16
2023-02-16T09:40:47.445Z,12.16
2023-02-16T09:43:48.906Z,12.19
2023-02-16T09:46:38.788Z,12.26
2023-02-16T09:49:36.205Z,12.00
2023-02-16T09:52:36.019Z,12.12
2023-02-16T09:55:32.243Z,12.01
2023-02-16T09:58:29.115Z,11.92
2023-02-16T10:01:31.831Z,12.00
2023-02-16T10:04:40.247Z,11.95
2023-02-16T10:07:43.755Z,11.93
2023-02-16T10:10:45.855Z,11.93
2023-02-16T10:13:44.086Z,11.87
2023-02-16T10:16:42.737Z,11.94
2023-02-16T10:19:41.099Z,11.97
2023-02-16T10:22:36.936Z,11.99
2023-02-16T10:25:36.054Z,11.94
2023-02-16T10:28:38.207Z,11.99
2023-02-16T10:31:37.234Z,12.10
2023-02-16T10:34:46.809Z,12.07
2023-02-16T10:37:59.320Z,12.02
2023-02-16T10:40:57.019Z,12.01
2023-02-16T10:43:54.372Z,12.10
2023-02-16T10:46:47.817Z,12.13
2023-02-16T10:49:38.686Z,12.20
2023-02-16T10:52:33.988Z,12.18
2023-02-16T10:55:23.389Z,12.19
2023-02-16T10:58:22.551Z,12.12
2023-02-16T11:01:17.073Z,12.17
2023-02-16T11:04:06.806Z,12.21
2023-02-16T11:07:07.382Z,12.02
2023-02-16T11:10:01.379Z,12.36
2023-02-16T11:12:58.165Z,12.39
2023-02-16T11:15:54.985Z,12.36
2023-02-16T11:18:49.806Z,12.45
2023-02-16T11:21:48.015Z,12.43
2023-02-16T11:24:39.790Z,12.57
2023-02-16T11:27:29.994Z,12.58
2023-02-16T11:30:29.483Z,12.67
2023-02-16T11:33:25.176Z,12.73
2023-02-16T11:36:26.210Z,12.91
2023-02-16T11:39:21.702Z,13.04
2023-02-16T11:42:30.303Z,13.16
2023-02-16T11:45:30.938Z,13.29
2023-02-16T11:48:28.975Z,13.35
2023-02-16T11:51:34.326Z,13.22
2023-02-16T11:54:24.561Z,13.19
2023-02-16T11:57:15.890Z,13.13
2023-02-16T12:00:22.002Z,13.12
2023-02-16T12:03:52.266Z,13.22
2023-02-16T12:06:57.699Z,13.56
2023-02-16T12:09:57.056Z,13.60
2023-02-16T12:13:03.050Z,13.66
2023-02-16T12:16:02.091Z,13.97
2023-02-16T12:19:07.890Z,14.14
2023-02-16T12:22:10.414Z,14.24
2023-02-16T12:25:19.865Z,14.57
2023-02-16T12:28:21.328Z,15.17
2023-02-16T12:31:22.474Z,15.23
2023-02-16T12:34:24.690Z,14.93
2023-02-16T12:37:27.011Z,14.82
2023-02-16T12:40:29.915Z,15.01
2023-02-16T12:43:35.982Z,14.97
2023-02-16T12:46:33.040Z,14.76
2023-02-16T12:49:27.566Z,15.00
2023-02-16T12:52:38.617Z,15.09
2023-02-16T12:55:32.267Z,15.21
2023-02-16T12:58:29.995Z,15.29
2023-02-16T13:01:25.222Z,15.58
2023-02-16T13:04:26.256Z,15.84
2023-02-16T13:07:22.810Z,15.74
2023-02-16T13:10:23.991Z,15.97
2023-02-16T13:13:19.373Z,16.13
2023-02-16T13:16:29.058Z,16.08
2023-02-16T13:19:19.597Z,16.00
2023-02-16T13:22:52.918Z,15.87
2023-02-16T13:26:10.949Z,15.80
2023-02-16T13:29:33.454Z,15.81
2023-02-16T13:33:02.667Z,15.51
2023-02-16T13:36:15.205Z,15.35
2023-02-16T13:39:38.942Z,15.23
2023-02-16T13:42:47.198Z,15.24
2023-02-16T13:45:41.554Z,15.28
2023-02-16T13:48:47.365Z,15.26
2023-02-16T13:51:46.463Z,15.12
2023-02-16T13:54:40.033Z,15.00
2023-02-16T13:58:06.818Z,14.89
2023-02-16T14:00:56.631Z,14.86
2023-02-16T14:03:47.893Z,14.85
2023-02-16T14:06:40.009Z,15.03
2023-02-16T14:09:57.443Z,15.07
2023-02-16T14:12:46.885Z,15.28
2023-02-16T14:15:37.079Z,15.50
2023-02-16T14:18:32.889Z,15.59
2023-02-16T14:21:37.190Z,15.80
2023-02-16T14:24:33.903Z,15.95
2023-02-16T14:27:46.080Z,15.87
2023-02-16T14:30:44.586Z,16.03
2023-02-16T14:33:44.159Z,15.90
2023-02-16T14:36:36.025Z,15.92
2023-02-16T14:39:27.337Z,15.86
2023-02-16T14:42:19.948Z,15.81
2023-02-16T14:45:38.776Z,15.62
2023-02-16T14:49:14.932Z,15.51
2023-02-16T14:52:49.960Z,15.56
2023-02-16T14:56:22.427Z,15.22
2023-02-16T14:59:29.186Z,15.17
2023-02-16T15:02:31.856Z,15.14
2023-02-16T15:05:24.114Z,15.19
2023-02-16T15:08:22.595Z,15.37
2023-02-16T15:11:21.163Z,15.31
2023-02-16T15:14:12.865Z,15.21
2023-02-16T15:17:02.160Z,15.21
2023-02-16T15:19:52.067Z,15.22
2023-02-16T15:22:49.361Z,15.10
2023-02-16T15:25:42.197Z,14.91
2023-02-16T15:28:34.375Z,14.91
2023-02-16T15:31:31.088Z,14.96
2023-02-16T15:34:33.349Z,14.94
2023-02-16T15:37:32.688Z,15.08
2023-02-16T15:40:30.207Z,15.14
2023-02-16T15:43:32.780Z,15.55
2023-02-16T15:46:29.249Z,15.74
2023-02-16T15:49:30.580Z,15.80
2023-02-16T15:52:29.073Z,15.77
2023-02-16T15:55:18.693Z,15.93
2023-02-16T15:58:07.956Z,16.02
2023-02-16T16:00:58.664Z,16.22
2023-02-16T16:03:48.747Z,16.32
2023-02-16T16:06:41.321Z,16.39
2023-02-16T16:09:33.763Z,16.14
2023-02-16T16:12:24.184Z,15.97
2023-02-16T16:15:20.938Z,15.80
2023-02-16T16:18:43.418Z,15.71
2023-02-16T16:21:34.377Z,15.55
2023-02-16T16:24:38.990Z,15.42
2023-02-16T16:27:36.334Z,15.31
2023-02-16T16:30:31.659Z,15.44
2023-02-16T16:33:22.335Z,15.38
2023-02-16T16:36:13.722Z,15.35
2023-02-16T16:39:23.842Z,15.35
2023-02-16T16:42:24.952Z,15.31
2023-02-16T16:45:37.905Z,15.39
2023-02-16T16:48:36.445Z,15.26
2023-02-16T16:51:40.753Z,15.31
2023-02-16T16:54:35.746Z,15.31
2023-02-16T16:57:25.260Z,15.38
2023-02-16T17:00:16.352Z,15.37
2023-02-16T17:03:08.897Z,15.21
2023-02-16T17:05:59.823Z,15.34
2023-02-16T17:08:49.650Z,15.33
2023-02-16T17:11:40.750Z,15.39
2023-02-16T17:14:29.986Z,15.42
2023-02-16T17:17:19.272Z,15.38
2023-02-16T17:20:15.982Z,15.37
2023-02-16T17:23:06.674Z,15.47
2023-02-16T17:25:55.965Z,15.48
2023-02-16T17:28:45.199Z,15.49
2023-02-16T17:31:34.800Z,15.46
2023-02-16T17:34:29.452Z,15.45
2023-02-16T17:37:19.666Z,15.48
2023-02-16T17:40:17.505Z,15.53
2023-02-16T17:43:14.616Z,15.46
2023-02-16T17:46:06.699Z,15.61
2023-02-16T17:48:56.428Z,15.61
2023-02-16T17:51:45.598Z,15.64
2023-02-16T17:54:34.800Z,15.61
2023-02-16T17:57:25.413Z,15.68
2023-02-16T18:00:19.525Z,15.69
2023-02-16T18:03:10.002Z,15.65
2023-02-16T18:05:59.255Z,15.66
2023-02-16T18:08:48.625Z,15.62
2023-02-16T18:11:37.912Z,15.70
2023-02-16T18:14:28.548Z,15.68
2023-02-16T18:17:17.963Z,15.73
2023-02-16T18:20:09.306Z,15.70
2023-02-16T18:22:58.542Z,15.63
2023-02-16T18:25:47.793Z,15.58
2023-02-16T18:28:37.157Z,15.65
2023-02-16T18:31:27.875Z,15.75
2023-02-16T18:34:17.174Z,15.74
2023-02-16T18:37:06.479Z,15.68
2023-02-16T18:39:55.697Z,15.70
2023-02-16T18:42:45.375Z,15.57
2023-02-16T18:45:34.686Z,15.52
2023-02-16T18:48:25.467Z,15.48
2023-02-16T18:51:16.564Z,15.46
2023-02-16T18:54:06.322Z,15.41
2023-02-16T18:56:55.493Z,15.54
2023-02-16T18:59:44.894Z,15.40
2023-02-16T19:02:34.164Z,15.43
2023-02-16T19:05:25.380Z,15.30
2023-02-16T19:08:15.260Z,15.20
2023-02-16T19:11:04.616Z,15.14
2023-02-16T19:13:53.925Z,15.19
2023-02-16T19:16:43.397Z,15.15
2023-02-16T19:19:33.226Z,15.17
2023-02-16T19:22:23.923Z,15.17
2023-02-16T19:25:13.215Z,15.11
2023-02-16T19:28:02.497Z,15.22
2023-02-16T19:30:51.807Z,15.26
2023-02-16T19:33:42.324Z,15.08
2023-02-16T19:36:34.204Z,15.20
2023-02-16T19:39:24.917Z,15.18
2023-02-16T19:42:14.451Z,15.09
2023-02-16T19:45:05.343Z,15.08
2023-02-16T19:47:54.594Z,15.14
2023-02-16T19:50:43.942Z,15.14
2023-02-16T19:53:33.942Z,15.05
2023-02-16T19:56:27.553Z,15.03
2023-02-16T19:59:18.376Z,15.13
2023-02-16T20:02:08.439Z,15.05
2023-02-16T20:04:57.660Z,14.97
2023-02-16T20:07:47.006Z,15.04
2023-02-16T20:10:40.709Z,14.88
2023-02-16T20:13:31.414Z,14.87
2023-02-16T20:16:21.995Z,15.09
2023-02-16T20:19:12.007Z,14.94
2023-02-16T20:22:01.512Z,14.83
2023-02-16T20:24:51.295Z,14.94
2023-02-16T20:27:41.566Z,14.95
2023-02-16T20:30:32.393Z,14.90
2023-02-16T20:33:22.139Z,14.93
2023-02-16T20:36:12.029Z,14.93
2023-02-16T20:39:01.571Z,14.88
2023-02-16T20:41:51.159Z,14.91
2023-02-16T20:44:40.601Z,14.90
2023-02-16T20:47:31.972Z,14.81
2023-02-16T20:50:21.369Z,14.91
2023-02-16T20:53:10.742Z,14.57
2023-02-16T20:56:07.264Z,14.88
2023-02-16T20:58:58.650Z,14.81
2023-02-16T21:01:52.330Z,14.84
2023-02-16T21:04:43.296Z,14.93
2023-02-16T21:07:32.481Z,14.85
2023-02-16T21:10:21.819Z,14.88
2023-02-16T21:13:11.072Z,15.00
2023-02-16T21:16:00.791Z,14.85
2023-02-16T21:18:50.176Z,14.77
2023-02-16T21:21:41.757Z,14.91
2023-02-16T21:24:30.947Z,14.90
2023-02-16T21:27:20.188Z,15.03
2023-02-16T21:30:10.829Z,14.90
2023-02-16T21:33:00.244Z,14.88
2023-02-16T21:35:49.590Z,14.88
2023-02-16T21:38:41.627Z,14.91
2023-02-16T21:41:31.335Z,14.96
2023-02-16T21:44:20.492Z,14.93
2023-02-16T21:47:30.096Z,15.00
2023-02-16T21:50:19.740Z,14.92
2023-02-16T21:53:10.587Z,14.99
2023-02-16T21:56:19.451Z,14.81
2023-02-16T21:59:12.213Z,14.97
2023-02-16T22:02:01.486Z,14.93
2023-02-16T22:04:50.882Z,14.93
2023-02-16T22:07:40.164Z,15.00
2023-02-16T22:10:30.169Z,14.84
2023-02-16T22:13:21.007Z,14.94
2023-02-16T22:16:12.531Z,14.82
2023-02-16T22:19:07.261Z,14.88
2023-02-16T22:21:56.996Z,14.92
2023-02-16T22:24:46.229Z,15.00
2023-02-16T22:27:35.500Z,14.83
2023-02-16T22:30:26.338Z,14.76
2023-02-16T22:33:15.676Z,14.72
2023-02-16T22:36:14.006Z,14.82
2023-02-16T22:39:03.336Z,14.73
2023-02-16T22:41:53.021Z,14.68
2023-02-16T22:44:42.328Z,14.89
2023-02-16T22:47:33.076Z,14.80
2023-02-16T22:50:22.825Z,14.82
2023-02-16T22:53:12.172Z,14.72
2023-02-16T22:56:02.454Z,14.71
2023-02-16T22:58:52.048Z,14.75
2023-02-16T23:01:41.379Z,14.72
2023-02-16T23:04:32.410Z,14.81
2023-02-16T23:07:21.811Z,14.83
2023-02-16T23:10:11.762Z,14.76
2023-02-16T23:13:01.197Z,14.75
2023-02-16T23:15:50.626Z,14.80
2023-02-16T23:18:40.207Z,14.85
2023-02-16T23:21:33.230Z,14.80
2023-02-16T23:24:24.631Z,14.75
2023-02-16T23:27:13.991Z,14.91
2023-02-16T23:30:03.759Z,14.84
2023-02-16T23:32:53.059Z,14.78
2023-02-16T23:35:43.547Z,14.62
2023-02-16T23:38:34.409Z,14.73
2023-02-16T23:41:23.663Z,14.76
2023-02-16T23:44:15.409Z,14.79
2023-02-16T23:47:04.692Z,14.78
2023-02-16T23:49:53.997Z,14.76
2023-02-16T23:52:43.805Z,14.64
2023-02-16T23:55:34.499Z,14.75
2023-02-16T23:58:23.712Z,14.69
